Time;durP1;ratioP1;P1;durP2;ratioP2;P2;SDS_P1;SDS_P2;PMS_P1;PMS_P2;Temp;Humidity;BMP_temperature;BMP_pressure;BME280_temperature;BME280_humidity;BME280_pressure;Samples;Min_cycle;Max_cycle;Signal;HPM_P1;HPM_P2
2022/07/16 00:01:53;;;;;;;2.55;2.08;;;18.30;99.90;;;;;;4211543;28;20032;-69
2022/07/16 00:03:59;;;;;;;1.98;1.50;;;18.30;99.90;;;;;;4210587;28;20040;-68
2022/07/16 00:06:00;;;;;;;2.22;1.90;;;18.30;99.90;;;;;;4211524;28;20480;-74
2022/07/16 00:08:02;;;;;;;3.00;2.17;;;18.30;99.90;;;;;;4211248;28;20040;-68
2022/07/16 00:10:04;;;;;;;8.07;2.22;;;18.20;99.90;;;;;;4211462;28;20109;-68
2022/07/16 00:12:05;;;;;;;4.90;1.88;;;18.20;99.90;;;;;;4211314;28;20476;-70
2022/07/16 00:14:07;;;;;;;2.55;2.30;;;18.10;99.90;;;;;;4211394;28;20032;-71
2022/07/16 00:16:08;;;;;;;3.60;2.65;;;18.10;99.90;;;;;;4211536;28;20032;-69
2022/07/16 00:20:30;;;;;;;2.92;2.50;;;18.00;99.90;;;;;;4211721;28;20028;-72
2022/07/16 00:22:31;;;;;;;2.42;2.05;;;18.00;99.90;;;;;;4211401;28;20541;-72
2022/07/16 00:24:32;;;;;;;4.15;2.10;;;18.00;99.90;;;;;;4211589;28;20024;-71
2022/07/16 00:26:34;;;;;;;6.72;2.80;;;17.90;99.90;;;;;;4211263;28;20028;-69
2022/07/16 00:28:35;;;;;;;3.78;2.42;;;17.90;99.90;;;;;;4211520;28;20503;-69
2022/07/16 00:30:36;;;;;;;4.00;2.05;;;17.80;99.90;;;;;;4211191;28;20047;-69
2022/07/16 00:32:37;;;;;;;7.50;2.40;;;17.70;99.90;;;;;;4211111;28;20032;-69
2022/07/16 00:34:38;;;;;;;8.00;3.00;;;17.70;99.90;;;;;;4209934;28;20121;-75
2022/07/16 00:36:41;;;;;;;4.68;2.75;;;17.60;99.90;;;;;;4211156;28;20529;-70
2022/07/16 00:38:42;;;;;;;4.70;2.90;;;17.60;99.90;;;;;;4211399;28;20036;-69
2022/07/16 00:40:43;;;;;;;5.72;2.42;;;17.50;99.90;;;;;;4211238;28;20048;-75
2022/07/16 00:42:44;;;;;;;4.28;2.67;;;17.50;99.90;;;;;;4211140;28;20077;-71
2022/07/16 00:44:45;;;;;;;7.03;2.90;;;17.50;99.90;;;;;;4210713;28;20108;-69
2022/07/16 00:46:49;;;;;;;5.97;2.30;;;17.40;99.90;;;;;;4211135;28;20097;-72
2022/07/16 00:48:50;;;;;;;5.78;2.78;;;17.40;99.90;;;;;;4210523;28;20056;-71
2022/07/16 00:50:52;;;;;;;7.53;2.33;;;17.40;99.90;;;;;;4210788;28;20040;-69
2022/07/16 00:52:53;;;;;;;5.35;3.08;;;17.40;99.90;;;;;;4210978;28;20040;-72
2022/07/16 00:54:54;;;;;;;6.72;2.60;;;17.40;99.90;;;;;;4211490;28;20047;-70
2022/07/16 00:56:55;;;;;;;5.97;3.00;;;17.40;99.90;;;;;;4210787;28;20061;-71
2022/07/16 00:58:56;;;;;;;2.28;2.08;;;17.30;99.90;;;;;;4211014;28;20089;-72
2022/07/16 01:00:58;;;;;;;5.07;2.42;;;17.30;99.90;;;;;;4210660;28;20040;-70
2022/07/16 01:03:00;;;;;;;2.83;2.33;;;17.30;99.90;;;;;;4210664;28;20078;-70
2022/07/16 01:05:02;;;;;;;12.32;2.40;;;17.20;99.90;;;;;;4210443;28;20043;-68
2022/07/16 01:07:04;;;;;;;3.90;2.38;;;17.10;99.90;;;;;;4210280;28;20102;-74
2022/07/16 01:09:06;;;;;;;5.35;2.58;;;17.10;99.90;;;;;;4209292;28;20117;-69
2022/07/16 01:11:10;;;;;;;3.17;2.45;;;17.00;99.90;;;;;;4210657;28;20525;-70
2022/07/16 01:13:12;;;;;;;4.93;2.45;;;17.00;99.90;;;;;;4210775;28;20067;-69
2022/07/16 01:15:13;;;;;;;4.03;2.63;;;17.00;99.90;;;;;;4210440;28;20020;-70
2022/07/16 01:17:14;;;;;;;4.30;2.50;;;17.00;99.90;;;;;;4210755;28;20925;-75
2022/07/16 01:19:16;;;;;;;4.28;2.60;;;17.00;99.90;;;;;;4210188;28;20081;-70
2022/07/16 01:21:17;;;;;;;5.47;2.67;;;17.00;99.90;;;;;;4210447;28;20085;-70
2022/07/16 01:23:22;;;;;;;2.88;2.33;;;17.00;99.90;;;;;;4209867;28;20465;-75
2022/07/16 01:25:23;;;;;;;4.90;2.30;;;17.00;99.90;;;;;;4211147;28;20035;-73
2022/07/16 01:27:25;;;;;;;3.03;2.40;;;17.00;99.90;;;;;;4210761;28;20458;-68
2022/07/16 01:29:26;;;;;;;4.85;2.47;;;17.10;99.90;;;;;;4209197;28;20056;-70
2022/07/16 01:31:27;;;;;;;4.38;2.58;;;17.10;99.90;;;;;;4210268;28;20077;-73
2022/07/16 01:33:30;;;;;;;5.05;2.58;;;17.10;99.90;;;;;;4210003;28;20032;-69
2022/07/16 01:35:31;;;;;;;3.80;2.85;;;17.10;99.90;;;;;;4210213;28;20090;-69
2022/07/16 01:37:33;;;;;;;5.80;3.00;;;17.10;99.90;;;;;;4210436;28;20478;-69
2022/07/16 01:39:37;;;;;;;2.58;2.30;;;17.10;99.90;;;;;;4210108;28;20054;-72
2022/07/16 01:41:38;;;;;;;3.95;2.45;;;17.20;99.90;;;;;;4210360;28;20081;-74
2022/07/16 01:43:40;;;;;;;3.40;2.67;;;17.20;99.90;;;;;;4208754;28;20040;-69
2022/07/16 01:45:42;;;;;;;5.60;2.58;;;17.20;99.90;;;;;;4210095;28;20028;-76
2022/07/16 01:47:43;;;;;;;3.13;2.50;;;17.20;99.90;;;;;;4210192;28;20070;-70
2022/07/16 01:49:45;;;;;;;4.30;2.83;;;17.20;99.90;;;;;;4209783;28;20504;-69
2022/07/16 01:51:47;;;;;;;3.83;3.15;;;17.20;99.90;;;;;;4210046;28;20020;-70
2022/07/16 01:53:48;;;;;;;4.57;2.60;;;17.20;99.90;;;;;;4209789;28;20082;-69
2022/07/16 01:55:49;;;;;;;4.47;2.55;;;17.20;99.90;;;;;;4210608;28;20032;-72
2022/07/16 01:57:50;;;;;;;3.47;2.47;;;17.20;99.90;;;;;;4210088;28;20077;-72
2022/07/16 01:59:51;;;;;;;2.80;2.50;;;17.20;99.90;;;;;;4209874;28;20089;-72
2022/07/16 02:01:52;;;;;;;5.38;3.08;;;17.20;99.90;;;;;;4210077;28;20051;-76
2022/07/16 02:03:54;;;;;;;3.40;2.25;;;17.20;99.90;;;;;;4209788;28;20031;-73
2022/07/16 02:05:55;;;;;;;4.10;2.78;;;17.20;99.90;;;;;;4210006;28;20081;-70
2022/07/16 02:07:56;;;;;;;3.65;2.20;;;17.10;99.90;;;;;;4209528;28;20121;-70
2022/07/16 02:09:57;;;;;;;4.53;2.60;;;17.10;99.90;;;;;;4209908;28;20024;-70
2022/07/16 02:11:58;;;;;;;2.75;2.55;;;17.10;99.90;;;;;;4209681;28;20032;-69
2022/07/16 02:13:59;;;;;;;2.75;2.28;;;17.00;99.90;;;;;;4209834;28;20020;-69
2022/07/16 02:16:01;;;;;;;3.25;2.60;;;17.00;99.90;;;;;;4209543;28;20093;-75
2022/07/16 02:18:02;;;;;;;7.43;2.80;;;16.90;99.90;;;;;;4209834;28;20076;-69
2022/07/16 02:20:05;;;;;;;9.10;2.70;;;16.90;99.90;;;;;;4209520;28;20036;-70
2022/07/16 02:22:07;;;;;;;4.68;2.67;;;16.90;99.90;;;;;;4209913;28;20549;-69
2022/07/16 02:24:08;;;;;;;3.90;2.13;;;16.80;99.90;;;;;;4209907;28;20446;-74
2022/07/16 02:26:09;;;;;;;4.25;2.40;;;16.80;99.90;;;;;;4209858;28;20069;-70
2022/07/16 02:28:10;;;;;;;4.97;2.80;;;16.70;99.90;;;;;;4209484;28;20039;-71
2022/07/16 02:30:12;;;;;;;2.83;2.30;;;16.70;99.90;;;;;;4209709;28;20032;-69
2022/07/16 02:32:13;;;;;;;2.70;2.50;;;16.60;99.90;;;;;;4209551;28;20070;-73
2022/07/16 02:34:14;;;;;;;3.10;2.60;;;16.50;99.90;;;;;;4209466;28;20077;-72
2022/07/16 02:36:15;;;;;;;7.07;2.80;;;16.50;99.90;;;;;;4212829;28;20544;-72
2022/07/16 02:38:17;;;;;;;4.70;2.30;;;16.40;99.90;;;;;;4213055;28;20554;-71
2022/07/16 02:40:18;;;;;;;5.32;2.33;;;16.30;99.90;;;;;;4213119;28;20032;-69
2022/07/16 02:42:19;;;;;;;5.10;2.60;;;16.40;99.90;;;;;;4212947;28;20117;-69
2022/07/16 02:44:20;;;;;;;4.43;2.42;;;16.30;99.90;;;;;;4212717;28;20035;-71
2022/07/16 02:46:21;;;;;;;3.88;2.33;;;16.30;99.90;;;;;;4212691;28;20488;-70
2022/07/16 02:48:22;;;;;;;7.63;3.17;;;16.30;99.90;;;;;;4213074;28;20105;-76
2022/07/16 02:50:24;;;;;;;3.55;2.55;;;16.30;99.90;;;;;;4212577;28;20121;-69
2022/07/16 02:52:25;;;;;;;3.67;2.13;;;16.30;99.90;;;;;;4212842;28;20475;-75
2022/07/16 02:54:26;;;;;;;6.13;2.38;;;16.30;99.90;;;;;;4213099;28;20575;-69
2022/07/16 02:56:28;;;;;;;3.55;2.30;;;16.30;99.90;;;;;;4212815;28;20032;-70
2022/07/16 02:58:29;;;;;;;2.28;1.98;;;16.40;99.90;;;;;;4212515;28;20024;-72
2022/07/16 03:00:30;;;;;;;3.47;2.60;;;16.50;99.90;;;;;;4212678;28;20430;-68
2022/07/16 03:02:31;;;;;;;3.80;2.28;;;16.70;99.90;;;;;;4212657;28;20051;-69
2022/07/16 03:04:33;;;;;;;8.85;2.75;;;16.70;99.90;;;;;;4212406;28;20028;-69
2022/07/16 03:06:34;;;;;;;6.03;2.80;;;16.90;99.90;;;;;;4212296;28;20093;-67
2022/07/16 03:08:35;;;;;;;4.03;2.30;;;17.10;99.90;;;;;;4212350;28;20036;-68
2022/07/16 03:10:36;;;;;;;3.00;2.53;;;17.20;99.90;;;;;;4212800;28;20048;-74
2022/07/16 03:12:38;;;;;;;7.55;2.33;;;17.40;99.90;;;;;;4212481;28;20422;-67
2022/07/16 03:14:39;;;;;;;4.45;2.25;;;17.50;99.90;;;;;;4212727;28;20035;-68
2022/07/16 03:16:40;;;;;;;3.28;1.98;;;17.70;99.90;;;;;;4212157;28;20105;-68
2022/07/16 03:18:41;;;;;;;4.18;2.28;;;17.90;99.90;;;;;;4212333;28;20040;-69
2022/07/16 03:20:43;;;;;;;2.50;2.30;;;18.10;99.90;;;;;;4211935;28;20545;-74
2022/07/16 03:22:45;;;;;;;6.55;2.47;;;18.30;99.90;;;;;;4212379;28;20084;-73
2022/07/16 03:24:46;;;;;;;2.42;1.90;;;18.50;99.90;;;;;;4212380;28;20746;-74
2022/07/16 03:26:47;;;;;;;3.95;2.00;;;18.80;99.90;;;;;;4211059;28;20040;-68
2022/07/16 03:28:48;;;;;;;8.20;2.25;;;19.00;99.90;;;;;;4212155;28;20056;-68
2022/07/16 03:30:50;;;;;;;4.35;1.80;;;19.30;99.90;;;;;;4212131;28;20073;-67
2022/07/16 03:32:51;;;;;;;1.77;1.67;;;19.60;99.90;;;;;;4211995;28;20070;-69
2022/07/16 03:34:52;;;;;;;2.55;1.70;;;20.00;99.90;;;;;;4211821;28;20098;-68
2022/07/16 03:36:53;;;;;;;3.38;1.98;;;20.30;99.90;;;;;;4211144;28;20028;-68
2022/07/16 03:39:28;;;;;;;9.38;3.17;;;20.70;99.90;;;;;;4212426;28;20081;-70
2022/07/16 03:41:22;;;;;;;12.25;4.18;;;21.00;99.90;;;;;;4210827;28;20039;-68
2022/07/16 03:43:23;;;;;;;8.38;5.05;;;21.00;99.90;;;;;;4212095;28;20043;-68
2022/07/16 03:45:24;;;;;;;6.13;3.90;;;21.20;99.90;;;;;;4211792;28;20093;-69
2022/07/16 03:47:25;;;;;;;4.20;3.22;;;21.40;99.90;;;;;;4211867;28;20074;-68
2022/07/16 03:49:27;;;;;;;4.95;3.20;;;21.40;99.90;;;;;;4211644;28;20081;-70
2022/07/16 03:51:29;;;;;;;6.50;3.70;;;21.50;99.90;;;;;;4211757;28;20077;-69
2022/07/16 03:53:30;;;;;;;4.90;3.78;;;22.00;99.90;;;;;;4211935;28;20041;-73
2022/07/16 03:55:31;;;;;;;3.35;3.05;;;22.50;99.90;;;;;;4211994;28;20035;-69
2022/07/16 03:57:32;;;;;;;3.17;2.88;;;23.10;99.90;;;;;;4210662;28;20524;-69
2022/07/16 03:59:33;;;;;;;9.77;3.22;;;23.40;99.90;;;;;;4211682;28;20032;-70
2022/07/16 04:01:34;;;;;;;4.85;2.75;;;23.80;99.90;;;;;;4211521;28;20135;-68
2022/07/16 04:03:37;;;;;;;7.18;3.40;;;24.10;99.90;;;;;;4211287;28;20480;-71
2022/07/16 04:05:38;;;;;;;5.75;2.80;;;24.60;99.60;;;;;;4211523;28;20032;-69
2022/07/16 04:07:39;;;;;;;5.47;2.90;;;25.00;98.70;;;;;;4211401;28;20052;-71
2022/07/16 04:09:40;;;;;;;8.15;3.00;;;25.10;98.10;;;;;;4211122;28;20097;-68
2022/07/16 04:11:41;;;;;;;8.25;3.88;;;25.30;97.60;;;;;;4211360;28;20024;-72
2022/07/16 04:13:42;;;;;;;11.73;4.47;;;25.20;97.20;;;;;;4211414;28;20415;-71
2022/07/16 04:15:44;;;;;;;10.40;4.40;;;25.70;97.00;;;;;;4211205;28;20089;-72
2022/07/16 04:17:45;;;;;;;7.75;3.72;;;25.80;96.50;;;;;;4211245;28;20028;-70
2022/07/16 04:19:46;;;;;;;5.53;3.28;;;26.20;95.90;;;;;;4211281;28;20397;-73
2022/07/16 04:21:47;;;;;;;11.10;2.97;;;26.40;95.50;;;;;;4211396;28;20113;-72
2022/07/16 04:23:48;;;;;;;4.80;2.75;;;26.80;95.00;;;;;;4211201;28;20063;-75
2022/07/16 04:25:49;;;;;;;5.63;2.38;;;27.20;94.30;;;;;;4211450;28;20070;-75
2022/07/16 04:27:51;;;;;;;8.43;1.90;;;27.60;93.50;;;;;;4211144;28;20090;-69
2022/07/16 04:29:52;;;;;;;7.93;2.10;;;27.90;92.90;;;;;;4211101;28;20044;-72
2022/07/16 04:31:53;;;;;;;2.78;1.67;;;28.20;92.40;;;;;;4210796;28;20086;-71
2022/07/16 04:33:54;;;;;;;3.50;1.80;;;28.30;91.90;;;;;;4210599;28;20077;-71
2022/07/16 04:35:56;;;;;;;6.07;1.90;;;28.70;91.20;;;;;;4210907;28;20028;-74
2022/07/16 04:37:57;;;;;;;2.67;1.60;;;28.80;90.80;;;;;;4210793;28;20407;-69
2022/07/16 04:39:58;;;;;;;2.25;1.65;;;29.00;90.30;;;;;;4210941;28;20152;-70
2022/07/16 04:41:59;;;;;;;4.78;1.45;;;29.30;89.50;;;;;;4211052;28;20039;-70
2022/07/16 04:44:00;;;;;;;1.73;1.63;;;29.60;88.00;;;;;;4210654;28;20093;-67
2022/07/16 04:46:02;;;;;;;3.35;1.25;;;29.50;86.70;;;;;;4210725;28;20456;-68
2022/07/16 04:48:03;;;;;;;2.65;1.33;;;29.50;85.60;;;;;;4211036;28;20028;-68
2022/07/16 04:50:05;;;;;;;2.05;1.45;;;29.50;85.30;;;;;;4210463;28;20443;-69
2022/07/16 04:52:07;;;;;;;2.05;1.30;;;29.80;84.50;;;;;;4210657;28;20020;-68
2022/07/16 04:54:08;;;;;;;3.35;1.70;;;30.00;83.20;;;;;;4209284;28;20493;-68
2022/07/16 04:56:09;;;;;;;1.83;1.20;;;30.30;82.40;;;;;;4210915;28;20089;-69
2022/07/16 04:58:10;;;;;;;3.15;1.10;;;30.00;81.40;;;;;;4209977;28;20125;-71
2022/07/16 05:00:12;;;;;;;3.58;1.42;;;30.10;80.70;;;;;;4210052;28;20461;-68
2022/07/16 05:04:33;;;;;;;3.60;1.50;;;30.50;78.70;;;;;;4209821;28;20024;-71
2022/07/16 05:06:34;;;;;;;3.85;1.40;;;30.80;77.80;;;;;;4210265;28;20073;-69
2022/07/16 05:08:35;;;;;;;4.80;1.10;;;30.90;78.00;;;;;;4209785;28;20816;-70
2022/07/16 05:10:36;;;;;;;2.75;1.20;;;31.20;76.50;;;;;;4208817;28;20079;-67
2022/07/16 05:12:38;;;;;;;3.97;1.33;;;31.50;75.60;;;;;;4210203;28;20024;-68
2022/07/16 05:14:39;;;;;;;3.13;1.17;;;31.70;74.70;;;;;;4210471;28;20469;-72
2022/07/16 05:16:40;;;;;;;3.88;1.33;;;31.60;73.90;;;;;;4210483;28;20105;-71
2022/07/16 05:18:41;;;;;;;2.92;1.25;;;31.80;73.20;;;;;;4225963;28;20039;-72
2022/07/16 05:20:42;;;;;;;4.03;1.40;;;32.10;72.50;;;;;;4226778;28;20523;-69
2022/07/16 05:22:43;;;;;;;1.52;1.38;;;32.20;72.00;;;;;;4226947;28;20035;-68
2022/07/16 05:24:44;;;;;;;2.78;1.38;;;32.10;71.30;;;;;;4226959;28;20027;-72
2022/07/16 05:26:45;;;;;;;1.60;1.27;;;32.00;71.10;;;;;;4227326;28;20036;-70
2022/07/16 05:28:47;;;;;;;1.42;1.10;;;31.80;70.80;;;;;;4226892;28;20035;-73
2022/07/16 05:30:48;;;;;;;2.17;1.30;;;31.90;70.30;;;;;;4226506;28;20068;-73
2022/07/16 05:32:50;;;;;;;2.20;1.52;;;32.00;69.70;;;;;;4216014;28;20089;-71
2022/07/16 05:34:51;;;;;;;3.25;1.27;;;32.00;69.40;;;;;;4209793;28;20036;-69
2022/07/16 05:36:52;;;;;;;4.43;0.95;;;32.20;69.10;;;;;;4209971;28;20024;-70
2022/07/16 05:38:54;;;;;;;1.40;1.00;;;32.10;68.60;;;;;;4209922;28;20020;-69
2022/07/16 05:40:55;;;;;;;3.92;1.25;;;32.10;68.50;;;;;;4211009;28;20522;-76
2022/07/16 05:42:56;;;;;;;4.03;1.17;;;31.80;68.00;;;;;;4209866;28;20028;-73
2022/07/16 05:44:57;;;;;;;2.25;1.25;;;31.60;67.80;;;;;;4210536;28;20024;-70
2022/07/16 05:46:58;;;;;;;1.42;1.10;;;31.70;68.00;;;;;;4226103;28;20418;-69
2022/07/16 05:48:59;;;;;;;4.30;1.55;;;32.00;67.60;;;;;;4214247;28;20484;-79
2022/07/16 05:51:01;;;;;;;1.48;1.00;;;31.70;68.10;;;;;;4209654;28;20093;-74
2022/07/16 05:53:02;;;;;;;3.47;1.25;;;32.00;67.60;;;;;;4210286;28;20031;-70
2022/07/16 05:55:04;;;;;;;1.83;1.25;;;32.40;67.20;;;;;;4209618;28;20125;-72
2022/07/16 05:57:05;;;;;;;3.65;1.15;;;32.70;66.80;;;;;;4210376;28;20605;-73
2022/07/16 05:59:06;;;;;;;3.22;1.48;;;32.80;66.00;;;;;;4209279;28;20077;-67
2022/07/16 06:01:07;;;;;;;3.33;1.02;;;32.70;65.60;;;;;;4209302;28;20058;-68
2022/07/16 06:03:09;;;;;;;1.65;1.25;;;32.20;65.40;;;;;;4209801;28;20040;-69
2022/07/16 06:05:10;;;;;;;2.97;0.90;;;31.90;65.80;;;;;;4209135;28;20097;-65
2022/07/16 06:07:12;;;;;;;2.55;1.25;;;31.90;65.50;;;;;;4215515;28;20043;-69
2022/07/16 06:09:14;;;;;;;1.65;1.40;;;31.70;65.50;;;;;;4225619;28;20044;-68
2022/07/16 06:11:15;;;;;;;3.13;1.92;;;31.90;65.40;;;;;;4226256;28;20065;-66
2022/07/16 06:13:17;;;;;;;1.88;1.13;;;31.80;65.10;;;;;;4212832;28;20069;-68
2022/07/16 06:15:18;;;;;;;1.08;0.93;;;31.80;65.20;;;;;;4209558;28;20074;-68
2022/07/16 06:17:21;;;;;;;2.75;1.48;;;31.70;64.90;;;;;;4216780;28;20032;-68
2022/07/16 06:19:22;;;;;;;2.70;1.02;;;31.20;65.30;;;;;;4224306;28;20028;-67
2022/07/16 06:21:23;;;;;;;1.85;0.95;;;30.60;65.60;;;;;;4226262;28;20019;-72
2022/07/16 06:23:24;;;;;;;6.40;1.33;;;30.20;66.50;;;;;;4224728;28;20031;-69
2022/07/16 06:25:26;;;;;;;11.02;1.98;;;29.90;66.80;;;;;;4226568;28;20104;-67
2022/07/16 06:27:28;;;;;;;6.63;1.90;;;29.70;67.10;;;;;;4226867;28;20073;-69
2022/07/16 06:29:30;;;;;;;3.35;1.52;;;29.70;67.60;;;;;;4225948;28;20035;-68
2022/07/16 06:31:31;;;;;;;1.90;1.70;;;29.80;67.40;;;;;;4226051;28;20038;-72
2022/07/16 06:33:32;;;;;;;4.97;1.50;;;30.10;67.40;;;;;;4224636;28;20092;-67
2022/07/16 06:35:33;;;;;;;2.00;1.60;;;30.30;67.10;;;;;;4214039;28;20033;-70
2022/07/16 06:37:34;;;;;;;6.70;1.70;;;30.50;67.10;;;;;;4207756;28;20806;-70
2022/07/16 06:39:36;;;;;;;6.68;1.40;;;31.10;66.90;;;;;;4208301;28;20472;-70
2022/07/16 06:41:37;;;;;;;38.25;4.72;;;31.70;66.10;;;;;;4209222;28;20028;-72
2022/07/16 06:43:38;;;;;;;27.85;4.78;;;31.20;65.80;;;;;;4213088;28;20165;-74
2022/07/16 06:45:43;;;;;;;29.50;5.28;;;30.30;66.90;;;;;;4209426;28;20542;-67
2022/07/16 06:47:44;;;;;;;17.63;3.97;;;29.20;68.30;;;;;;4208679;28;20044;-68
2022/07/16 06:49:45;;;;;;;20.00;3.60;;;28.30;70.00;;;;;;4208204;28;20052;-70
2022/07/16 06:51:46;;;;;;;28.83;3.92;;;28.40;70.20;;;;;;4208184;28;20097;-72
2022/07/16 06:53:48;;;;;;;21.10;4.22;;;29.20;69.90;;;;;;4208268;28;20085;-73
2022/07/16 06:55:49;;;;;;;23.10;4.13;;;30.30;68.80;;;;;;4209269;28;20028;-71
2022/07/16 06:57:50;;;;;;;21.88;4.50;;;30.60;67.80;;;;;;4209143;28;20036;-69
2022/07/16 06:59:51;;;;;;;37.13;5.80;;;30.10;68.70;;;;;;4209010;28;20085;-72
2022/07/16 07:01:52;;;;;;;43.75;7.13;;;29.50;69.20;;;;;;4208658;28;20537;-70
2022/07/16 07:03:53;;;;;;;15.32;2.80;;;29.70;69.30;;;;;;4209181;28;20069;-71
2022/07/16 07:05:55;;;;;;;13.43;3.13;;;29.80;69.10;;;;;;4209049;28;20028;-70
2022/07/16 07:07:56;;;;;;;6.50;1.55;;;29.80;69.20;;;;;;4208854;28;20044;-75
2022/07/16 07:09:59;;;;;;;1.55;1.42;;;29.90;69.10;;;;;;4208234;28;20048;-70
2022/07/16 07:12:00;;;;;;;7.93;1.73;;;29.90;69.20;;;;;;4217125;28;20073;-67
2022/07/16 07:14:01;;;;;;;1.60;1.38;;;29.40;69.50;;;;;;4212340;28;20040;-69
2022/07/16 07:16:03;;;;;;;5.97;1.83;;;28.60;70.90;;;;;;4209092;28;20020;-68
2022/07/16 07:18:04;;;;;;;10.20;1.80;;;28.10;71.70;;;;;;4208316;28;20041;-68
2022/07/16 07:20:07;;;;;;;8.02;2.00;;;27.50;72.80;;;;;;4209192;28;20032;-69
2022/07/16 07:22:08;;;;;;;4.35;1.05;;;27.40;73.40;;;;;;4211675;28;20040;-68
2022/07/16 07:24:09;;;;;;;2.75;1.35;;;27.50;73.40;;;;;;4211216;28;20024;-71
2022/07/16 07:26:10;;;;;;;7.05;2.25;;;27.60;73.40;;;;;;4211873;28;20438;-70
2022/07/16 07:28:11;;;;;;;1.63;1.48;;;27.70;73.30;;;;;;4211994;28;20465;-69
2022/07/16 07:30:13;;;;;;;4.15;1.30;;;27.70;73.40;;;;;;4211515;28;20061;-69
2022/07/16 07:32:14;;;;;;;2.50;1.33;;;27.90;73.10;;;;;;4211523;28;20086;-68
2022/07/16 07:34:15;;;;;;;3.55;1.80;;;28.00;72.70;;;;;;4211680;28;20032;-68
2022/07/16 07:36:16;;;;;;;4.95;1.20;;;27.90;72.60;;;;;;4211333;28;20031;-68
2022/07/16 07:38:18;;;;;;;3.30;1.60;;;27.90;72.80;;;;;;4209636;28;20024;-69
2022/07/16 07:40:19;;;;;;;1.65;1.25;;;27.80;73.10;;;;;;4210887;28;20028;-69
2022/07/16 07:42:20;;;;;;;1.50;1.40;;;27.80;73.30;;;;;;4210018;28;20044;-70
2022/07/16 07:44:22;;;;;;;7.00;1.67;;;27.90;73.30;;;;;;4209581;28;20039;-69
2022/07/16 07:46:23;;;;;;;13.18;2.58;;;27.40;73.70;;;;;;4211572;28;20048;-69
2022/07/16 07:48:24;;;;;;;14.52;2.45;;;26.90;74.70;;;;;;4211289;28;20021;-70
2022/07/16 07:50:25;;;;;;;15.90;3.33;;;26.30;74.10;;;;;;4210877;28;20043;-69
2022/07/16 07:52:26;;;;;;;32.47;5.60;;;26.00;71.90;;;;;;4211059;28;20101;-69
2022/07/16 07:54:27;;;;;;;22.02;3.50;;;25.80;69.90;;;;;;4211108;28;20434;-69
2022/07/16 07:56:29;;;;;;;39.20;5.43;;;25.70;68.70;;;;;;4211631;28;20120;-67
2022/07/16 07:58:30;;;;;;;11.38;1.85;;;25.70;68.30;;;;;;4211019;28;20442;-70
2022/07/16 08:00:31;;;;;;;5.15;1.67;;;25.90;68.10;;;;;;4211105;28;20085;-67
2022/07/16 08:02:33;;;;;;;2.97;1.30;;;25.80;67.50;;;;;;4211345;28;20132;-68
2022/07/16 08:04:35;;;;;;;11.40;3.15;;;25.60;67.80;;;;;;4211544;28;20044;-69
2022/07/16 08:06:37;;;;;;;3.53;1.13;;;25.60;68.30;;;;;;4210998;28;20567;-70
2022/07/16 08:08:38;;;;;;;3.33;1.25;;;25.90;68.00;;;;;;4210776;28;20062;-71
2022/07/16 08:10:39;;;;;;;2.20;0.85;;;26.10;67.70;;;;;;4209627;28;20040;-70
2022/07/16 08:12:41;;;;;;;3.67;1.65;;;26.40;67.40;;;;;;4211265;28;20093;-71
2022/07/16 08:14:42;;;;;;;3.20;2.33;;;26.60;67.20;;;;;;4210742;28;20105;-70
2022/07/16 08:16:45;;;;;;;3.60;1.67;;;26.70;67.20;;;;;;4210550;28;20105;-71
2022/07/16 08:18:46;;;;;;;5.25;1.30;;;26.80;67.20;;;;;;4209586;28;20112;-69
2022/07/16 08:20:48;;;;;;;1.90;1.02;;;27.10;66.90;;;;;;4210788;28;20069;-66
2022/07/16 08:22:49;;;;;;;2.75;1.13;;;27.30;66.80;;;;;;4210876;28;20093;-67
2022/07/16 08:27:10;;;;;;;3.25;1.45;;;27.40;66.20;;;;;;4228692;28;20024;-68
2022/07/16 08:29:11;;;;;;;3.75;1.02;;;27.30;66.50;;;;;;4227417;28;20032;-68
2022/07/16 08:31:13;;;;;;;4.88;1.65;;;27.30;66.60;;;;;;4227704;28;20043;-69
2022/07/16 08:33:14;;;;;;;12.10;3.35;;;27.20;66.10;;;;;;4227556;28;20061;-66
2022/07/16 08:35:16;;;;;;;35.90;5.53;;;27.00;66.30;;;;;;4227463;28;20031;-68
2022/07/16 08:37:35;;;;;;;3.97;1.92;;;26.70;66.10;;;;;;4227386;28;20468;-69
2022/07/16 08:39:44;;;;;;;9.45;1.90;;;26.50;66.60;;;;;;4217417;28;20165;-70
2022/07/16 08:41:46;;;;;;;8.20;1.40;;;26.10;67.60;;;;;;4210575;28;20485;-66
2022/07/16 08:43:49;;;;;;;6.00;1.80;;;26.10;67.80;;;;;;4211632;28;20078;-66
2022/07/16 08:45:50;;;;;;;14.40;2.88;;;26.10;67.90;;;;;;4210534;28;20070;-67
2022/07/16 08:47:52;;;;;;;9.02;2.53;;;26.10;68.10;;;;;;4210262;28;20036;-67
2022/07/16 08:49:54;;;;;;;7.00;0.98;;;26.40;68.40;;;;;;4210172;28;21207;-67
2022/07/16 08:51:59;;;;;;;7.28;1.50;;;26.80;67.50;;;;;;4210719;28;20082;-67
2022/07/16 08:54:06;;;;;;;3.08;0.90;;;27.10;66.60;;;;;;4210550;28;20538;-67
2022/07/16 08:56:08;;;;;;;3.13;1.38;;;27.30;66.30;;;;;;4210293;28;20097;-67
2022/07/16 08:58:09;;;;;;;3.60;1.17;;;27.50;66.50;;;;;;4210520;28;20032;-66
2022/07/16 09:00:11;;;;;;;5.07;1.33;;;27.70;66.30;;;;;;4211576;28;20061;-68
2022/07/16 09:02:15;;;;;;;3.17;1.15;;;27.70;66.20;;;;;;4210507;28;20036;-68
2022/07/16 09:04:16;;;;;;;3.45;1.10;;;27.70;65.30;;;;;;4210398;28;21108;-68
2022/07/16 09:06:19;;;;;;;4.30;0.93;;;27.90;65.30;;;;;;4212140;28;20089;-66
2022/07/16 09:08:20;;;;;;;1.30;0.90;;;28.20;65.10;;;;;;4209417;28;20083;-67
2022/07/16 09:10:32;;;;;;;1.77;1.15;;;28.50;64.30;;;;;;4209765;28;20422;-71
2022/07/16 09:12:45;;;;;;;1.58;0.90;;;28.60;64.20;;;;;;4210089;28;20078;-70
2022/07/16 09:14:46;;;;;;;4.50;1.00;;;28.30;64.50;;;;;;4210082;28;20044;-70
2022/07/16 09:16:51;;;;;;;21.65;2.45;;;28.30;64.70;;;;;;4209611;28;20032;-70
2022/07/16 09:19:02;;;;;;;8.60;1.80;;;28.00;64.80;;;;;;4210158;28;20496;-70
2022/07/16 09:21:03;;;;;;;7.75;2.25;;;27.80;65.50;;;;;;4210025;28;20089;-68
2022/07/16 09:23:18;;;;;;;9.30;2.58;;;27.60;66.00;;;;;;4210056;28;20120;-67
2022/07/16 09:25:19;;;;;;;2.80;1.10;;;27.80;65.60;;;;;;4209943;28;20032;-72
2022/07/16 09:27:27;;;;;;;9.05;2.38;;;27.80;64.80;;;;;;4210317;28;20478;-69
2022/07/16 09:29:28;;;;;;;1.83;1.15;;;27.90;63.50;;;;;;4209571;28;20466;-71
2022/07/16 09:31:35;;;;;;;1.83;0.93;;;28.00;63.30;;;;;;4225788;28;20104;-68
2022/07/16 09:33:37;;;;;;;1.75;0.98;;;28.20;62.30;;;;;;4226620;28;20418;-67
2022/07/16 09:35:38;;;;;;;4.28;0.85;;;28.30;61.90;;;;;;4226733;28;20025;-70
2022/07/16 09:37:59;;;;;;;2.85;1.02;;;28.30;61.30;;;;;;4226393;28;20092;-69
2022/07/16 09:40:03;;;;;;;1.65;0.85;;;28.10;59.60;;;;;;4226620;28;20043;-67
2022/07/16 09:42:04;;;;;;;2.10;0.85;;;27.90;60.50;;;;;;4225062;28;20031;-68
2022/07/16 09:44:13;;;;;;;4.68;1.02;;;27.90;60.60;;;;;;4224727;28;20032;-65
2022/07/16 09:46:17;;;;;;;2.45;0.90;;;27.90;60.00;;;;;;4226359;28;20430;-66
2022/07/16 09:48:30;;;;;;;0.95;0.90;;;27.90;60.50;;;;;;4226480;28;20024;-67
2022/07/16 09:50:36;;;;;;;2.67;1.05;;;28.00;59.80;;;;;;4226346;28;20088;-66
2022/07/16 09:52:37;;;;;;;3.47;0.85;;;27.90;60.10;;;;;;4226223;28;20547;-68
2022/07/16 09:54:38;;;;;;;2.17;0.70;;;27.90;60.20;;;;;;4226292;28;20108;-69
2022/07/16 09:56:40;;;;;;;1.42;0.77;;;27.80;60.20;;;;;;4217752;28;20422;-69
2022/07/16 09:58:46;;;;;;;1.08;0.93;;;27.70;60.20;;;;;;4206103;28;20105;-63
2022/07/16 10:00:47;;;;;;;4.22;1.08;;;27.70;60.20;;;;;;4214276;28;20093;-68
2022/07/16 10:02:51;;;;;;;2.40;1.00;;;27.90;60.60;;;;;;4213691;28;20081;-70
2022/07/16 10:04:52;;;;;;;6.72;1.25;;;27.90;60.20;;;;;;4213030;28;20389;-69
2022/07/16 10:06:53;;;;;;;2.03;0.95;;;27.90;60.00;;;;;;4209053;28;20039;-69
2022/07/16 10:08:55;;;;;;;3.40;0.95;;;27.80;60.30;;;;;;4210207;28;20092;-67
2022/07/16 10:10:57;;;;;;;2.03;1.10;;;27.60;60.70;;;;;;4213344;28;20044;-67
2022/07/16 10:12:58;;;;;;;1.85;0.88;;;27.60;61.30;;;;;;4213280;28;20484;-68
2022/07/16 10:15:01;;;;;;;1.35;0.95;;;27.60;61.50;;;;;;4212596;28;20465;-66
2022/07/16 10:17:18;;;;;;;2.25;0.90;;;27.70;61.40;;;;;;4213557;28;20094;-66
2022/07/16 10:19:22;;;;;;;1.83;0.75;;;27.80;60.90;;;;;;4212322;28;20054;-66
2022/07/16 10:21:24;;;;;;;1.85;0.88;;;27.80;60.40;;;;;;4214068;28;20020;-66
2022/07/16 10:23:29;;;;;;;1.58;0.90;;;27.70;60.60;;;;;;4212838;28;20097;-65
2022/07/16 10:25:32;;;;;;;2.63;0.93;;;27.70;61.20;;;;;;4212770;28;20104;-68
2022/07/16 10:27:35;;;;;;;2.65;1.50;;;27.60;61.90;;;;;;4210859;28;20093;-69
2022/07/16 10:29:43;;;;;;;4.75;1.00;;;27.60;62.20;;;;;;4214129;28;20023;-74
2022/07/16 10:32:30;;;;;;;4.97;1.40;;;27.70;62.90;;;;;;4214111;28;20047;-69
2022/07/16 10:34:15;;;;;;;2.33;1.17;;;27.70;62.70;;;;;;4204474;28;20047;-69
2022/07/16 10:36:17;;;;;;;4.15;1.42;;;27.60;62.30;;;;;;4212397;28;20496;-67
2022/07/16 10:38:18;;;;;;;1.80;1.10;;;27.50;62.20;;;;;;4213946;28;20163;-73
2022/07/16 10:40:23;;;;;;;1.60;1.20;;;27.20;61.90;;;;;;4213273;28;20032;-66
2022/07/16 10:42:24;;;;;;;3.80;1.38;;;27.00;62.60;;;;;;4214411;28;20085;-67